Flight Track Log - Related Links

Times and Time Zones

All times are in EDT time to prevent confusion due to time zone crossing. See the N21315 flight status page for this flight to view local times or setup timezone preferences in your user account.

Time Position Orientation Groundspeed Altitude Reporting Facility
EDT Latitude Longitude Course Direction KTS MPH feet Rate Location/Type
Tue 09:31:28 AM 39.4167 -84.3167 63° Northeast 109 125 4,200  Level Cincinnati TRACON
Tue 09:32:00 AM 39.4222 -84.3028 63° Northeast 109 125 4,500 411 Climbing Indianapolis Center
Tue 09:32:41 AM 39.4339 -84.2803 56° Northeast 111 128 4,700 295 Climbing Indianapolis Center
Tue 09:33:01 AM 39.4419 -84.2678 50° Northeast 117 135 4,800 387 Climbing Indianapolis Center
Tue 09:33:43 AM 39.4522 -84.2461 58° Northeast 113 130 5,100 393 Climbing Indianapolis Center
Tue 09:34:02 AM 39.4611 -84.2350 44° Northeast 116 133 5,200 393 Climbing Indianapolis Center
Tue 09:34:44 AM 39.4756 -84.2175 43° Northeast 114 131 5,500 393 Climbing Indianapolis Center
Tue 09:35:03 AM 39.4844 -84.2056 46° Northeast 115 132 5,600 484 Climbing Indianapolis Center
Tue 09:35:46 AM 39.4981 -84.1886 44° Northeast 113 130 6,000 514 Climbing Indianapolis Center
Tue 09:36:48 AM 39.5211 -84.1594 44° Northeast 113 130 6,500 532 Climbing Indianapolis Center
Tue 09:37:05 AM 39.5289 -84.1492 46° Northeast 113 130 6,700 581 Climbing Indianapolis Center
Tue 09:37:50 AM 39.5419 -84.1297 49° Northeast 112 129 7,100 600 Climbing Indianapolis Center
Tue 09:38:05 AM 39.5500 -84.1197 44° Northeast 108 124 7,300 484 Climbing Indianapolis Center
Tue 09:38:52 AM 39.5681 -84.0997 40° Northeast 108 124 7,600 440 Climbing Indianapolis Center
Tue 09:39:54 AM 39.5936 -84.0744 37° Northeast 110 127 8,100 387 Climbing Indianapolis Center
Tue 09:40:56 AM 39.6206 -84.0469 38° Northeast 116 133 8,400 372 Climbing Indianapolis Center
Tue 09:42:03 AM 39.6500 -84.0189 36° Northeast 120 138 8,900 290 Climbing Indianapolis Center
Tue 09:43:00 AM 39.6742 -83.9889 44° Northeast 124 143 9,000 101 Climbing Indianapolis Center
Tue 09:44:02 AM 39.7036 -83.9517 44° Northeast 135 155 9,100  Climbing Indianapolis Center
Tue 09:45:04 AM 39.7342 -83.9136 44° Northeast 144 166 9,000  Descending Indianapolis Center
Tue 09:46:06 AM 39.7639 -83.8772 43° Northeast 147 169 9,100  Climbing Indianapolis Center
Tue 09:47:08 AM 39.7986 -83.8339 44° Northeast 146 168 9,000 -48 Descending Indianapolis Center
Tue 09:48:10 AM 39.8289 -83.7961 44° Northeast 147 169 9,000  Level Indianapolis Center
Tue 09:49:12 AM 39.8589 -83.7581 44° Northeast 148 170 9,000 -50 Level Indianapolis Center
Tue 09:50:10 AM 39.8883 -83.7208 44° Northeast 148 170 8,900  Descending Indianapolis Center
Tue 09:51:16 AM 39.9203 -83.6847 41° Northeast 148 170 9,000 50 Climbing Indianapolis Center
Tue 09:52:11 AM 39.9483 -83.6494 44° Northeast 140 161 9,000  Level Indianapolis Center
Tue 09:53:12 AM 39.9781 -83.6150 42° Northeast 144 166 9,000 -49 Level Indianapolis Center
Tue 09:54:13 AM 40.0081 -83.5778 44° Northeast 147 169 8,900  Descending Indianapolis Center
Tue 09:55:14 AM 40.0378 -83.5406 44° Northeast 138 159 9,000 98 Climbing Indianapolis Center
Tue 09:56:15 AM 40.0656 -83.5058 44° Northeast 138 159 9,100  Climbing Indianapolis Center
Tue 09:57:16 AM 40.0933 -83.4683 46° Northeast 144 166 9,000 -94 Descending Indianapolis Center
Tue 09:58:23 AM 40.1275 -83.4289 41° Northeast 146 168 8,900  Descending Indianapolis Center
Tue 09:59:18 AM 40.1508 -83.3992 44° Northeast 130 150 9,000  Climbing Indianapolis Center
Tue 10:00:19 AM 40.1803 -83.3644 42° Northeast 141 162 8,900 -79 Descending Indianapolis Center
Tue 10:00:34 AM 40.1858 -83.3564 48° Northeast 140 161 8,900  Level Indianapolis Center
Tue 10:01:19 AM 40.2100 -83.3297 40° Northeast 142 163 8,900  Level Indianapolis Center
Tue 10:01:36 AM 40.2161 -83.3217 45° Northeast 143 165 8,900 76 Level Indianapolis Center
Tue 10:02:38 AM 40.2431 -83.2872 44° Northeast 136 157 9,000 48 Climbing Indianapolis Center
Tue 10:03:40 AM 40.2728 -83.2525 42° Northeast 141 162 9,000  Level Indianapolis Center
Tue 10:04:42 AM 40.2997 -83.2167 45° Northeast 138 159 9,000  Level Indianapolis Center
Tue 10:05:44 AM 40.3328 -83.1736 45° Northeast 142 163 9,000  Level Indianapolis Center
Tue 10:06:46 AM 40.3622 -83.1369 43° Northeast 145 167 9,000  Level Indianapolis Center
Tue 10:07:48 AM 40.3903 -83.0989 46° Northeast 144 166 9,000  Level Indianapolis Center
Tue 10:08:50 AM 40.4169 -83.0606 48° Northeast 141 162 9,000 -48 Level Indianapolis Center
Tue 10:09:52 AM 40.4464 -83.0233 44° Northeast 144 166 8,900 -97 Descending Indianapolis Center
Tue 10:10:54 AM 40.4736 -82.9822 49° Northeast 146 168 8,800 48 Descending Indianapolis Center
Tue 10:11:56 AM 40.5003 -82.9467 45° Northeast 138 159 9,000 97 Climbing Indianapolis Center
Tue 10:12:58 AM 40.5303 -82.9067 45° Northeast 139 160 9,000  Level Indianapolis Center
Tue 10:14:00 AM 40.5592 -82.8700 44° Northeast 143 165 9,000 -48 Level Indianapolis Center
Tue 10:15:02 AM 40.5869 -82.8322 46° Northeast 143 165 8,900 -48 Descending Indianapolis Center
Tue 10:16:04 AM 40.6139 -82.7933 48° Northeast 142 163 8,900  Level Indianapolis Center
Tue 10:17:06 AM 40.6478 -82.7494 44° Northeast 145 167 8,900 -48 Level Indianapolis Center
Tue 10:18:08 AM 40.6753 -82.7100 47° Northeast 145 167 8,800 -55 Descending Indianapolis Center
Tue 10:18:56 AM 40.6919 -82.6889 44° Northeast 144 166 8,800 91 Level Cleveland Center
Tue 10:19:14 AM 40.7047 -82.6731 43° Northeast 142 163 8,900 218 Climbing Cleveland Center
Tue 10:19:51 AM 40.7217 -82.6514 44° Northeast 141 162 9,000 100 Climbing Cleveland Center
Tue 10:20:14 AM 40.7303 -82.6381 50° Northeast 142 163 9,000 -100 Level Cleveland Center
Tue 10:20:51 AM 40.7517 -82.6142 40° Northeast 147 169 8,900 -100 Descending Cleveland Center
Tue 10:21:14 AM 40.7622 -82.5953 54° Northeast 142 163 8,900  Level Cleveland Center
Tue 10:21:46 AM 40.7750 -82.5819 38° Northeast 149 171 8,900  Level Cleveland Center
Tue 10:22:14 AM 40.7900 -82.5606 47° Northeast 142 163 8,900  Level Cleveland Center
Tue 10:22:53 AM 40.8069 -82.5389 44° Northeast 146 168 8,900 -100 Level Cleveland Center
Tue 10:23:14 AM 40.8197 -82.5231 43° Northeast 142 163 8,800 -100 Descending Cleveland Center
Tue 10:23:53 AM 40.8369 -82.5014 44° Northeast 147 169 8,800  Level Cleveland Center
Tue 10:24:14 AM 40.8475 -82.4853 49° Northeast 142 163 8,800  Level Cleveland Center
Tue 10:24:54 AM 40.8667 -82.4611 44° Northeast 143 165 8,800  Level Cleveland Center
Tue 10:25:14 AM 40.8753 -82.4478 49° Northeast 142 163 8,800 98 Level Cleveland Center
Tue 10:25:55 AM 40.8944 -82.4261 41° Northeast 144 166 8,900 200 Climbing Cleveland Center
Tue 10:26:14 AM 40.9050 -82.4128 44° Northeast 142 163 9,000 200 Climbing Cleveland Center
Tue 10:26:55 AM 40.9200 -82.3911 48° Northeast 137 158 9,100 100 Climbing Cleveland Center
Tue 10:27:14 AM 40.9306 -82.3778 44° Northeast 142 163 9,100  Level Cleveland Center
Tue 10:28:02 AM 40.9519 -82.3508 44° Northeast 141 162 9,100  Level Cleveland Center
Tue 10:28:56 AM 40.9775 -82.3158 46° Northeast 145 167 9,100 -52 Level Cleveland Center
Tue 10:29:57 AM 41.0072 -82.2781 44° Northeast 145 167 9,000  Descending Cleveland Center
Tue 10:30:52 AM 41.0225 -82.2372 64° Northeast 135 155 9,100  Climbing Cleveland Center
Tue 10:31:58 AM 41.0419 -82.1853 64° Northeast 142 163 9,000 -47 Descending Cleveland Center
Tue 10:32:59 AM 41.0633 -82.1392 58° Northeast 142 163 9,000 -50 Level Cleveland Center
Tue 10:33:59 AM 41.0806 -82.0953 62° Northeast 135 155 8,900 -198 Descending Cleveland Center
Tue 10:35:00 AM 41.1000 -82.0544 58° Northeast 130 150 8,600 -344 Descending Cleveland Center
Tue 10:36:01 AM 41.1150 -82.0108 65° Northeast 133 153 8,200 -397 Descending Cleveland Center
Tue 10:37:01 AM 41.1303 -81.9642 66° East 138 159 7,800 -496 Descending Cleveland Center
Tue 10:38:02 AM 41.1475 -81.9178 64° Northeast 139 160 7,200 -541 Descending Cleveland Center
Tue 10:39:03 AM 41.1669 -81.8683 62° Northeast 139 160 6,700 -446 Descending Cleveland Center
Tue 10:40:03 AM 41.1961 -81.8497 26° Northeast 126 145 6,300 -347 Descending Cleveland Center
Tue 10:41:04 AM 41.2297 -81.8339 20° North 130 150 6,000 -422 Descending Cleveland Center
Tue 10:42:11 AM 41.2675 -81.8153 20° North 125 144 5,400 -661 Descending Cleveland Center
Tue 10:43:11 AM 41.2969 -81.7908 32° Northeast 140 161 4,600 -744 Descending Cleveland Center
Tue 10:44:12 AM 41.3264 -81.7556 42° Northeast 131 151 3,900 -545 Descending Cleveland Center
Tue 10:45:12 AM 41.3497 -81.7172 51° Northeast 138 159 3,500 -446 Descending Cleveland Center
Tue 10:46:13 AM 41.3772 -81.6817 44° Northeast 147 169 3,000 -179 Descending Cleveland Center
Tue 10:47:26 AM 41.4089 -81.6297 51° Northeast 141 162 3,100 94 Climbing Cleveland Center
Tue 10:48:20 AM 41.4383 -81.6108 26° Northeast 147 169 3,200 -55 Climbing Cleveland Center
Tue 10:49:15 AM 41.4719 -81.5975 17° North 129 148 3,000 -550 Descending Cleveland Center
Tue 10:50:09 AM 41.5053 -81.5897 10° North 133 153 2,200 -889 Descending Cleveland Center

Login

Don't have an account? Register now (free) for customized features, flight alerts, and more!